Time;durP1;ratioP1;P1;durP2;ratioP2;P2;SDS_P1;SDS_P2;PMS_P1;PMS_P2;Temp;Humidity;BMP_temperature;BMP_pressure;BME280_temperature;BME280_humidity;BME280_pressure;Samples;Min_cycle;Max_cycle;Signal;HPM_P1;HPM_P2
2022/11/09 00:01:29;;;;;;;7.63;4.80;;;13.60;26.60;;;;;;5046582;28;20184;-75
2022/11/09 00:03:56;;;;;;;7.30;4.60;;;13.50;29.20;;;;;;5048278;28;20243;-76
2022/11/09 00:06:23;;;;;;;21.13;4.87;;;13.40;32.20;;;;;;5045440;28;20446;-76
2022/11/09 00:08:48;;;;;;;7.73;4.50;;;13.30;37.00;;;;;;5049986;28;20515;-76
2022/11/09 00:11:14;;;;;;;9.23;4.80;;;13.30;40.30;;;;;;5045969;28;20475;-76
2022/11/09 00:13:42;;;;;;;6.47;4.97;;;13.20;38.50;;;;;;5049520;28;20266;-76
2022/11/09 00:16:10;;;;;;;10.43;5.40;;;13.20;40.70;;;;;;5047628;28;20226;-76
2022/11/09 00:18:37;;;;;;;7.07;5.60;;;13.30;40.70;;;;;;5049312;28;20419;-76
2022/11/09 00:21:07;;;;;;;8.43;6.07;;;15.00;42.60;;;;;;5031865;28;20448;-77
2022/11/09 00:23:33;;;;;;;11.97;6.50;;;13.30;41.00;;;;;;5046020;28;20942;-76
2022/11/09 00:26:00;;;;;;;8.00;5.63;;;13.30;51.00;;;;;;5048474;28;20454;-78
2022/11/09 00:28:25;;;;;;;8.50;5.90;;;13.30;48.60;;;;;;5049393;28;20169;-76
2022/11/09 00:30:51;;;;;;;9.23;6.17;;;13.30;45.20;;;;;;5046712;28;20459;-76
2022/11/09 00:33:16;;;;;;;8.17;6.13;;;13.30;38.60;;;;;;5049137;28;20243;-76
2022/11/09 00:35:42;;;;;;;11.50;6.30;;;13.20;41.00;;;;;;5036409;28;20262;-76
2022/11/09 00:38:07;;;;;;;8.33;5.87;;;13.20;41.10;;;;;;5044153;28;20173;-76
2022/11/09 00:40:33;;;;;;;12.80;6.53;;;13.20;48.80;;;;;;5046472;28;20604;-76
2022/11/09 00:42:58;;;;;;;14.50;6.30;;;13.20;54.70;;;;;;5048573;28;20271;-77
2022/11/09 00:45:24;;;;;;;11.17;6.33;;;13.20;56.30;;;;;;5048225;28;20280;-76
2022/11/09 00:47:49;;;;;;;16.03;6.77;;;13.30;58.20;;;;;;5046567;28;20702;-76
2022/11/09 00:50:15;;;;;;;8.77;6.47;;;13.20;53.90;;;;;;5044160;28;20193;-76
2022/11/09 00:52:40;;;;;;;9.00;6.97;;;13.00;46.80;;;;;;5044556;28;20181;-76
2022/11/09 00:55:06;;;;;;;10.17;7.67;;;13.00;52.90;;;;;;5046989;28;20205;-76
2022/11/09 00:57:32;;;;;;;9.40;6.77;;;12.90;58.60;;;;;;5048890;28;20552;-76
2022/11/09 00:59:57;;;;;;;14.93;7.80;;;14.20;58.80;;;;;;5048242;28;20269;-76
2022/11/09 01:02:23;;;;;;;14.00;7.67;;;12.80;56.00;;;;;;5043540;28;20268;-76
2022/11/09 01:04:48;;;;;;;14.77;8.93;;;12.80;58.50;;;;;;5042702;28;20185;-77
2022/11/09 01:07:14;;;;;;;12.83;8.80;;;12.80;64.10;;;;;;5037566;28;20204;-76
2022/11/09 01:09:39;;;;;;;17.50;9.20;;;12.80;77.30;;;;;;5044326;28;20591;-76
2022/11/09 01:12:05;;;;;;;16.60;9.23;;;12.80;72.30;;;;;;5047307;28;20555;-76
2022/11/09 01:14:30;;;;;;;11.70;8.00;;;12.80;69.50;;;;;;5047312;28;20280;-75
2022/11/09 01:16:56;;;;;;;11.87;6.20;;;12.70;70.90;;;;;;5048612;28;20157;-76
2022/11/09 01:19:22;;;;;;;8.33;6.33;;;12.70;70.60;;;;;;5047623;28;20184;-75
2022/11/09 01:21:47;;;;;;;9.57;6.40;;;12.70;72.60;;;;;;5040553;28;20250;-76
2022/11/09 01:24:13;;;;;;;11.80;8.33;;;12.70;71.40;;;;;;5036132;28;20206;-76
2022/11/09 01:26:38;;;;;;;15.47;9.07;;;12.70;78.30;;;;;;5045968;28;20181;-76
2022/11/09 01:29:04;;;;;;;10.30;7.47;;;12.60;80.30;;;;;;5049317;28;20241;-75
2022/11/09 01:31:29;;;;;;;12.20;7.87;;;12.60;81.50;;;;;;5047203;28;20260;-75
2022/11/09 01:33:55;;;;;;;12.90;7.90;;;12.60;81.80;;;;;;5038538;28;20185;-76
2022/11/09 01:36:22;;;;;;;11.47;7.60;;;12.60;80.60;;;;;;5036216;28;20637;-75
2022/11/09 01:38:48;;;;;;;14.47;7.67;;;12.50;81.90;;;;;;5047636;28;20324;-75
2022/11/09 01:41:23;;;;;;;11.00;6.50;;;12.20;81.50;;;;;;5038147;28;20777;-74
2022/11/09 01:44:03;;;;;;;10.20;7.17;;;12.40;83.80;;;;;;5047415;28;20979;-75
2022/11/09 01:46:52;;;;;;;10.60;7.17;;;12.40;88.50;;;;;;5044999;28;20450;-75
2022/11/09 01:49:30;;;;;;;10.97;6.70;;;12.40;88.50;;;;;;5040687;28;20470;-75
2022/11/09 01:52:01;;;;;;;10.83;6.40;;;12.40;89.90;;;;;;5047072;28;20408;-75
2022/11/09 01:54:35;;;;;;;8.17;6.50;;;12.40;89.90;;;;;;5047804;28;20851;-74
2022/11/09 01:57:07;;;;;;;14.37;7.57;;;12.40;90.40;;;;;;5039932;28;20415;-75
2022/11/09 01:59:36;;;;;;;13.17;7.30;;;12.40;90.90;;;;;;5048212;28;20412;-74
2022/11/09 02:02:03;;;;;;;8.37;6.63;;;12.40;91.70;;;;;;5036738;28;20857;-75
2022/11/09 02:04:34;;;;;;;7.67;6.40;;;12.50;91.70;;;;;;5051289;28;20466;-75
2022/11/09 02:06:59;;;;;;;11.90;6.90;;;12.50;92.50;;;;;;5049650;28;20436;-75
2022/11/09 02:10:05;;;;;;;8.60;6.23;;;12.50;93.20;;;;;;5051674;28;20820;-75
2022/11/09 02:12:33;;;;;;;8.30;5.70;;;12.40;86.20;;;;;;5024467;28;20221;-75
2022/11/09 02:15:02;;;;;;;8.73;5.80;;;12.40;89.70;;;;;;5048564;28;20438;-75
2022/11/09 02:17:28;;;;;;;9.60;5.57;;;12.40;91.70;;;;;;5047360;28;20473;-75
2022/11/09 02:19:56;;;;;;;9.00;5.23;;;12.40;86.50;;;;;;5050788;28;20466;-74
2022/11/09 02:22:22;;;;;;;7.67;5.43;;;;;;;;;;5051659;28;20474;-75
2022/11/09 02:24:48;;;;;;;7.70;5.87;;;12.30;83.70;;;;;;5049667;28;20818;-75
2022/11/09 02:27:13;;;;;;;9.80;5.63;;;12.30;90.90;;;;;;5046869;28;20188;-75
2022/11/09 02:29:41;;;;;;;8.90;6.07;;;12.30;90.50;;;;;;5044090;28;20745;-75
2022/11/09 02:32:20;;;;;;;7.20;5.87;;;12.30;91.70;;;;;;5049611;28;20400;-75
2022/11/09 02:34:45;;;;;;;7.90;5.50;;;12.40;91.80;;;;;;5042578;28;20448;-75
2022/11/09 02:37:11;;;;;;;7.90;6.37;;;12.30;92.10;;;;;;5046706;28;20432;-74
2022/11/09 02:39:38;;;;;;;10.47;6.33;;;12.30;94.60;;;;;;5051886;28;20543;-75
2022/11/09 02:42:12;;;;;;;9.43;6.60;;;12.30;95.10;;;;;;5048873;28;20196;-75
2022/11/09 02:44:42;;;;;;;7.83;6.20;;;12.40;95.30;;;;;;5035393;28;20521;-75
2022/11/09 02:47:07;;;;;;;6.53;5.60;;;12.40;96.50;;;;;;5044804;28;20447;-75
2022/11/09 02:49:33;;;;;;;10.97;6.17;;;12.40;96.40;;;;;;5049826;28;20848;-75
2022/11/09 02:51:58;;;;;;;7.80;6.20;;;12.40;96.40;;;;;;5044204;28;20208;-75
2022/11/09 02:54:24;;;;;;;11.90;6.10;;;12.40;98.00;;;;;;5039827;28;20197;-75
2022/11/09 02:56:50;;;;;;;9.10;5.77;;;12.40;99.20;;;;;;5050685;28;20173;-75
2022/11/09 02:59:15;;;;;;;10.37;6.57;;;12.50;97.10;;;;;;5050195;28;20188;-75
2022/11/09 03:01:41;;;;;;;8.37;6.40;;;12.40;96.40;;;;;;5050146;28;20177;-75
2022/11/09 03:04:06;;;;;;;10.00;6.47;;;12.40;98.50;;;;;;5049622;28;20209;-75
2022/11/09 03:06:34;;;;;;;10.93;6.60;;;12.40;99.40;;;;;;5048939;28;20181;-75
2022/11/09 03:09:05;;;;;;;12.83;7.17;;;12.40;99.70;;;;;;5037735;28;20227;-75
2022/11/09 03:11:32;;;;;;;10.30;6.63;;;12.40;99.90;;;;;;5048348;28;20455;-74
2022/11/09 03:13:57;;;;;;;10.10;6.57;;;12.40;98.90;;;;;;5051250;28;20428;-75
2022/11/09 03:16:23;;;;;;;15.23;7.60;;;12.40;99.90;;;;;;5045823;28;21216;-75
2022/11/09 03:18:49;;;;;;;10.17;7.73;;;12.30;99.90;;;;;;5050810;28;20173;-75
2022/11/09 03:21:15;;;;;;;9.40;7.53;;;12.30;99.90;;;;;;5047168;28;20518;-74
2022/11/09 03:23:41;;;;;;;13.70;6.80;;;12.30;99.90;;;;;;5040802;28;20542;-74
2022/11/09 03:26:06;;;;;;;10.93;7.20;;;12.30;99.90;;;;;;5047031;28;20177;-74
2022/11/09 03:28:32;;;;;;;12.80;7.33;;;12.30;99.90;;;;;;5045265;28;20696;-75
2022/11/09 03:30:57;;;;;;;9.63;7.33;;;12.30;99.90;;;;;;5048187;28;20208;-75
2022/11/09 03:33:23;;;;;;;11.10;7.73;;;12.30;98.90;;;;;;5049414;28;20772;-75
2022/11/09 03:35:48;;;;;;;9.70;7.53;;;12.30;99.90;;;;;;5047725;28;20205;-75
2022/11/09 03:38:14;;;;;;;9.33;7.83;;;12.30;99.90;;;;;;5045548;28;20212;-75
2022/11/09 03:40:39;;;;;;;13.53;8.17;;;12.30;99.90;;;;;;5043252;28;20184;-74
2022/11/09 03:43:05;;;;;;;15.00;8.03;;;12.30;98.90;;;;;;5047802;28;20616;-75
2022/11/09 03:45:30;;;;;;;11.67;8.20;;;12.30;99.90;;;;;;5044197;28;20185;-75
2022/11/09 03:47:58;;;;;;;13.27;8.37;;;12.30;99.90;;;;;;5049209;28;20678;-74
2022/11/09 03:50:29;;;;;;;14.37;8.43;;;12.30;99.90;;;;;;5048926;28;20209;-75
2022/11/09 03:52:55;;;;;;;11.17;7.70;;;12.40;99.90;;;;;;5049518;28;20518;-75
2022/11/09 03:55:20;;;;;;;13.30;8.20;;;12.30;99.90;;;;;;5044271;28;20437;-75
2022/11/09 03:57:46;;;;;;;11.87;7.50;;;12.30;99.90;;;;;;5047936;28;20185;-75
2022/11/09 04:00:14;;;;;;;14.07;9.03;;;12.30;99.90;;;;;;5048352;28;20258;-75
2022/11/09 04:02:40;;;;;;;10.80;8.10;;;12.40;99.90;;;;;;5050001;28;20668;-75
2022/11/09 04:05:06;;;;;;;13.53;8.60;;;12.40;99.90;;;;;;5043005;28;20455;-75
2022/11/09 04:07:32;;;;;;;16.97;8.57;;;12.40;99.90;;;;;;5042730;28;20177;-75
2022/11/09 04:09:58;;;;;;;12.40;8.70;;;12.40;99.90;;;;;;5047236;28;20443;-74
2022/11/09 04:12:23;;;;;;;20.50;8.20;;;12.40;99.90;;;;;;5047197;28;20663;-75
2022/11/09 04:14:49;;;;;;;14.20;7.90;;;12.40;99.90;;;;;;5049668;28;20178;-75
2022/11/09 04:17:14;;;;;;;10.17;8.30;;;12.40;99.90;;;;;;5048546;28;20185;-75
2022/11/09 04:19:40;;;;;;;10.03;7.70;;;12.50;99.90;;;;;;5049715;28;20173;-75
2022/11/09 04:22:05;;;;;;;11.87;7.70;;;12.50;99.90;;;;;;5047903;28;20311;-75
2022/11/09 04:24:31;;;;;;;11.87;7.67;;;12.50;99.90;;;;;;5049835;28;20199;-75
2022/11/09 04:26:56;;;;;;;12.87;7.10;;;12.50;99.90;;;;;;5043924;28;20234;-75
2022/11/09 04:29:22;;;;;;;10.00;7.10;;;12.50;99.90;;;;;;5047186;28;20209;-75
2022/11/09 04:31:48;;;;;;;12.93;6.57;;;12.60;99.90;;;;;;5047411;28;20184;-75
2022/11/09 04:34:14;;;;;;;10.90;7.53;;;12.60;99.90;;;;;;5045093;28;20216;-75
2022/11/09 04:36:40;;;;;;;8.87;6.20;;;12.60;99.90;;;;;;5043661;28;20447;-75
2022/11/09 04:39:05;;;;;;;10.03;7.00;;;12.60;99.90;;;;;;5047201;28;20184;-75
2022/11/09 04:41:31;;;;;;;10.20;7.13;;;12.60;99.90;;;;;;5046749;28;20185;-75
2022/11/09 04:43:56;;;;;;;9.20;6.90;;;12.60;99.90;;;;;;5048301;28;20229;-75
2022/11/09 04:46:22;;;;;;;10.70;6.93;;;12.60;99.90;;;;;;5049391;28;20756;-75
2022/11/09 04:48:48;;;;;;;8.33;7.03;;;12.60;99.90;;;;;;5038260;28;20211;-76
2022/11/09 04:51:13;;;;;;;9.57;6.90;;;12.60;99.90;;;;;;5049024;28;20196;-75
2022/11/09 04:53:39;;;;;;;12.10;7.90;;;12.60;99.90;;;;;;5047423;28;20571;-75
2022/11/09 04:56:06;;;;;;;12.13;8.37;;;12.60;99.90;;;;;;5048348;28;20264;-75
2022/11/09 04:58:31;;;;;;;12.13;7.60;;;12.50;99.90;;;;;;5046601;28;20249;-75
2022/11/09 05:01:11;;;;;;;8.90;7.43;;;12.60;99.90;;;;;;5044272;28;20440;-75
2022/11/09 05:03:37;;;;;;;9.53;7.57;;;12.50;99.90;;;;;;5042111;28;20200;-75
2022/11/09 05:06:30;;;;;;;11.73;7.43;;;12.60;99.90;;;;;;5043529;28;20848;-75
2022/11/09 05:08:49;;;;;;;9.53;7.70;;;12.60;99.90;;;;;;5048913;28;20644;-75
2022/11/09 05:11:14;;;;;;;12.90;8.57;;;12.60;99.90;;;;;;5038665;28;20468;-75
2022/11/09 05:13:40;;;;;;;8.80;6.60;;;12.60;99.90;;;;;;5028575;28;20708;-75
2022/11/09 05:16:05;;;;;;;13.80;7.13;;;12.60;99.90;;;;;;5044723;28;20580;-75
2022/11/09 05:18:31;;;;;;;9.93;7.43;;;12.60;99.90;;;;;;5048398;28;20189;-75
2022/11/09 05:21:01;;;;;;;10.43;7.50;;;12.60;99.90;;;;;;5046464;28;20312;-75
2022/11/09 05:26:11;;;;;;;8.47;6.20;;;12.60;99.90;;;;;;5045360;28;20466;-75
2022/11/09 05:28:36;;;;;;;8.90;6.13;;;12.70;99.90;;;;;;5035920;28;20463;-75
2022/11/09 05:31:02;;;;;;;7.70;6.47;;;13.60;99.90;;;;;;5045202;28;20212;-75
2022/11/09 05:33:28;;;;;;;10.90;6.10;;;12.80;99.90;;;;;;5046061;28;20276;-75
2022/11/09 05:35:54;;;;;;;11.00;5.87;;;12.80;99.90;;;;;;5041727;28;20226;-76
2022/11/09 05:38:20;;;;;;;9.67;6.97;;;12.80;99.90;;;;;;5049099;28;20176;-75
2022/11/09 05:40:50;;;;;;;11.70;8.00;;;12.80;99.90;;;;;;5046537;28;20502;-75
2022/11/09 05:43:15;;;;;;;9.83;7.27;;;12.70;99.90;;;;;;5046341;28;20531;-75
2022/11/09 05:45:41;;;;;;;16.37;6.80;;;12.70;99.90;;;;;;5045257;28;20444;-75
2022/11/09 05:48:07;;;;;;;9.30;6.70;;;12.70;99.90;;;;;;5051898;28;20587;-75
2022/11/09 05:50:33;;;;;;;10.00;6.53;;;12.80;99.90;;;;;;5047434;28;20248;-75
2022/11/09 05:53:00;;;;;;;9.80;6.40;;;12.80;99.90;;;;;;5051184;28;20197;-75
2022/11/09 05:55:25;;;;;;;10.30;7.70;;;12.80;99.90;;;;;;5051495;28;20189;-75
2022/11/09 05:57:51;;;;;;;9.70;7.10;;;12.80;99.90;;;;;;5048436;28;20442;-75
2022/11/09 06:00:17;;;;;;;10.47;6.60;;;12.70;99.90;;;;;;5051144;28;20176;-75
2022/11/09 06:02:42;;;;;;;8.53;6.07;;;12.60;99.90;;;;;;5048860;28;20636;-75
2022/11/09 06:05:08;;;;;;;10.87;6.57;;;12.60;99.90;;;;;;5048406;28;20415;-75
2022/11/09 06:07:33;;;;;;;10.30;6.53;;;12.70;99.90;;;;;;5051602;28;20192;-76
2022/11/09 06:09:59;;;;;;;16.90;7.00;;;12.60;99.90;;;;;;5046831;28;20205;-75
2022/11/09 06:12:25;;;;;;;8.90;7.03;;;12.60;99.90;;;;;;5047086;28;20223;-76
2022/11/09 06:14:50;;;;;;;13.70;8.80;;;12.60;99.90;;;;;;5050916;28;20185;-75
2022/11/09 06:17:16;;;;;;;10.03;8.97;;;12.60;99.90;;;;;;5052189;28;20525;-76
2022/11/09 06:19:42;;;;;;;13.73;10.37;;;12.70;99.90;;;;;;5042165;28;20182;-75
2022/11/09 06:22:07;;;;;;;11.53;8.50;;;12.60;99.90;;;;;;5044324;28;20188;-75
2022/11/09 06:24:33;;;;;;;12.33;7.57;;;12.70;99.90;;;;;;5051713;28;20189;-76
2022/11/09 06:26:58;;;;;;;15.93;8.40;;;12.70;99.90;;;;;;5040052;28;20207;-76
2022/11/09 06:29:24;;;;;;;13.07;7.00;;;12.60;99.90;;;;;;5048904;28;20183;-76
2022/11/09 06:31:50;;;;;;;9.30;6.70;;;12.60;99.90;;;;;;5042905;28;20547;-76
2022/11/09 06:34:16;;;;;;;11.50;6.60;;;12.60;99.90;;;;;;5051313;28;20193;-76
2022/11/09 06:36:42;;;;;;;8.97;5.20;;;12.60;99.90;;;;;;5043440;28;20454;-78
2022/11/09 06:39:07;;;;;;;11.30;5.83;;;12.70;99.90;;;;;;5046317;28;20206;-79
2022/11/09 06:41:33;;;;;;;7.03;5.87;;;12.80;99.90;;;;;;5045965;28;20462;-78
2022/11/09 06:43:59;;;;;;;10.40;5.47;;;12.80;99.90;;;;;;5050808;28;20225;-79
2022/11/09 06:46:25;;;;;;;7.80;5.30;;;12.80;99.90;;;;;;5040964;28;20514;-78
2022/11/09 06:48:50;;;;;;;8.80;5.50;;;12.80;99.90;;;;;;5041771;28;20656;-78
2022/11/09 06:51:16;;;;;;;10.00;5.10;;;12.80;99.90;;;;;;5046179;28;20227;-78
2022/11/09 06:53:41;;;;;;;6.93;5.50;;;12.80;99.90;;;;;;5044887;28;20283;-79
2022/11/09 06:56:08;;;;;;;7.97;5.60;;;12.90;99.90;;;;;;5048063;28;20635;-79
2022/11/09 06:58:34;;;;;;;7.37;5.00;;;12.80;99.90;;;;;;5048039;28;20180;-78
2022/11/09 07:01:04;;;;;;;7.10;5.07;;;12.80;99.90;;;;;;5045419;28;20444;-78
2022/11/09 07:03:30;;;;;;;14.87;5.93;;;12.80;99.90;;;;;;5046284;28;20201;-78
2022/11/09 07:05:55;;;;;;;9.20;5.60;;;12.90;99.90;;;;;;5051085;28;20490;-78
2022/11/09 07:08:21;;;;;;;7.87;4.90;;;12.90;99.90;;;;;;5052825;28;20205;-79
2022/11/09 07:10:46;;;;;;;7.17;5.63;;;12.90;99.90;;;;;;5044868;28;20694;-78
2022/11/09 07:13:12;;;;;;;5.73;4.20;;;12.90;99.90;;;;;;5043728;28;20194;-79
2022/11/09 07:15:38;;;;;;;4.73;4.07;;;12.90;99.90;;;;;;5046994;28;20644;-79
2022/11/09 07:18:06;;;;;;;7.07;4.77;;;12.90;99.90;;;;;;5049554;28;20307;-78
2022/11/09 07:20:31;;;;;;;5.77;4.47;;;12.80;99.90;;;;;;5046731;28;20488;-79
2022/11/09 07:22:57;;;;;;;5.23;4.70;;;12.80;99.90;;;;;;5051934;28;20435;-79
2022/11/09 07:25:23;;;;;;;5.20;4.63;;;12.90;99.90;;;;;;5047380;28;20192;-77
2022/11/09 07:27:49;;;;;;;5.47;4.27;;;12.80;99.90;;;;;;5046868;28;20268;-77
2022/11/09 07:30:15;;;;;;;6.83;4.50;;;12.80;99.90;;;;;;5044834;28;20555;-77
2022/11/09 07:32:41;;;;;;;6.90;4.80;;;12.80;99.90;;;;;;5045440;28;20764;-77
2022/11/09 07:35:08;;;;;;;7.67;4.30;;;12.80;99.90;;;;;;5049649;28;20166;-77
2022/11/09 07:37:34;;;;;;;4.60;3.57;;;12.80;99.90;;;;;;5038987;28;20459;-77
2022/11/09 07:40:00;;;;;;;4.93;3.00;;;14.30;99.90;;;;;;5035943;28;20943;-77
2022/11/09 07:42:25;;;;;;;5.60;3.43;;;12.90;99.90;;;;;;5000303;28;20439;-75
2022/11/09 07:44:51;;;;;;;5.70;3.40;;;12.90;99.90;;;;;;5039246;28;20596;-76
2022/11/09 07:47:18;;;;;;;5.07;3.50;;;12.90;99.90;;;;;;5041214;28;20277;-78
2022/11/09 07:49:44;;;;;;;5.67;3.57;;;13.10;99.90;;;;;;5039737;28;20205;-78
2022/11/09 07:52:09;;;;;;;3.60;3.30;;;12.90;99.90;;;;;;5042856;28;20948;-77
2022/11/09 07:54:35;;;;;;;7.47;3.80;;;13.00;99.90;;;;;;5048225;28;20540;-78
2022/11/09 07:57:01;;;;;;;3.90;3.13;;;12.90;99.90;;;;;;5048481;28;20659;-78
2022/11/09 07:59:26;;;;;;;4.83;3.57;;;12.90;99.90;;;;;;5041574;28;20261;-78
2022/11/09 08:01:52;;;;;;;3.27;2.97;;;13.00;99.90;;;;;;5047593;28;20189;-77
2022/11/09 08:04:17;;;;;;;4.73;3.33;;;13.00;99.90;;;;;;5046172;28;20225;-77
2022/11/09 08:06:43;;;;;;;5.97;3.63;;;13.00;99.90;;;;;;5039058;28;20213;-77
2022/11/09 08:09:09;;;;;;;3.37;2.80;;;;;;;;;;5043039;28;20181;-78
2022/11/09 08:11:34;;;;;;;3.50;2.73;;;13.10;99.90;;;;;;5043349;28;20740;-77
2022/11/09 08:14:00;;;;;;;4.93;2.90;;;13.10;99.90;;;;;;5046917;28;20512;-78
2022/11/09 08:16:25;;;;;;;2.90;2.50;;;13.10;99.90;;;;;;5040389;28;20173;-77
2022/11/09 08:18:51;;;;;;;5.80;2.40;;;13.10;99.90;;;;;;5048268;28;20521;-77
2022/11/09 08:21:17;;;;;;;3.47;2.37;;;13.30;99.90;;;;;;5040817;28;20628;-77
2022/11/09 08:23:43;;;;;;;4.57;2.10;;;13.30;99.90;;;;;;5043328;28;20196;-78
2022/11/09 08:26:10;;;;;;;3.80;2.57;;;13.30;99.90;;;;;;5048153;28;20419;-77
2022/11/09 08:28:36;;;;;;;2.30;2.10;;;13.40;99.90;;;;;;5041508;28;20209;-77
2022/11/09 08:31:06;;;;;;;3.77;1.97;;;13.40;99.90;;;;;;5044276;28;20451;-77
2022/11/09 08:33:35;;;;;;;4.33;2.00;;;13.40;99.90;;;;;;5047783;28;20453;-77
2022/11/09 08:36:00;;;;;;;3.20;2.50;;;13.40;99.90;;;;;;5035716;28;20811;-77
2022/11/09 08:38:26;;;;;;;3.73;2.33;;;13.40;99.90;;;;;;5047328;28;20433;-78
2022/11/09 08:40:58;;;;;;;3.50;2.30;;;13.40;99.90;;;;;;5048172;28;20176;-77
2022/11/09 08:43:23;;;;;;;3.20;1.93;;;13.50;99.90;;;;;;5045005;28;20205;-77
2022/11/09 08:45:49;;;;;;;6.40;2.40;;;13.50;99.90;;;;;;5046515;28;20431;-78
2022/11/09 08:48:14;;;;;;;3.40;2.60;;;13.50;99.90;;;;;;5043000;28;20201;-77
2022/11/09 08:50:40;;;;;;;4.67;3.30;;;13.50;99.90;;;;;;5042791;28;20736;-78
2022/11/09 08:53:06;;;;;;;6.47;2.80;;;13.60;99.90;;;;;;5038733;28;20420;-78
2022/11/09 08:55:32;;;;;;;3.70;2.47;;;13.70;99.90;;;;;;5043901;28;20177;-77
2022/11/09 08:58:00;;;;;;;4.40;3.40;;;13.70;99.90;;;;;;5048129;28;20458;-77
2022/11/09 09:00:26;;;;;;;9.13;4.70;;;13.80;99.90;;;;;;5047082;28;20444;-77
2022/11/09 09:02:51;;;;;;;6.67;5.27;;;13.90;99.60;;;;;;5036709;28;20454;-77
2022/11/09 09:05:17;;;;;;;5.70;3.90;;;13.90;99.90;;;;;;5042830;28;20438;-79
2022/11/09 09:07:43;;;;;;;3.40;2.80;;;14.10;99.90;;;;;;5044960;28;20226;-77
2022/11/09 09:10:09;;;;;;;4.83;2.70;;;14.40;99.90;;;;;;5047989;28;20695;-76
2022/11/09 09:12:35;;;;;;;11.93;4.00;;;14.80;93.80;;;;;;5044454;28;20189;-77
2022/11/09 09:15:00;;;;;;;3.43;3.03;;;14.90;96.80;;;;;;5047114;28;20419;-77
2022/11/09 09:17:26;;;;;;;5.70;2.50;;;15.40;89.00;;;;;;5041540;28;20651;-76
2022/11/09 09:19:52;;;;;;;3.00;2.70;;;15.70;63.70;;;;;;5048962;28;20219;-76
2022/11/09 09:22:18;;;;;;;3.43;2.50;;;16.20;70.30;;;;;;5042794;28;20451;-76
2022/11/09 09:24:44;;;;;;;2.57;2.23;;;17.20;44.40;;;;;;5035229;28;20197;-76
2022/11/09 09:27:09;;;;;;;6.83;2.67;;;18.20;26.80;;;;;;5040304;28;20480;-77
2022/11/09 09:29:35;;;;;;;7.40;2.73;;;19.00;8.20;;;;;;5049946;28;20192;-76
2022/11/09 09:32:00;;;;;;;3.83;2.53;;;19.70;1.00;;;;;;5042394;28;20253;-76
2022/11/09 09:34:26;;;;;;;3.47;2.40;;;19.90;1.00;;;;;;5039336;28;20300;-77
2022/11/09 09:36:52;;;;;;;2.60;1.90;;;19.90;1.00;;;;;;5046322;28;20170;-76
2022/11/09 09:39:18;;;;;;;5.07;1.90;;;19.80;1.00;;;;;;5043563;28;20173;-76
2022/11/09 09:41:57;;;;;;;3.10;2.20;;;20.00;1.00;;;;;;5031989;28;21058;-76
2022/11/09 09:44:29;;;;;;;4.23;2.33;;;20.50;1.00;;;;;;5042675;28;20318;-77
2022/11/09 09:47:13;;;;;;;9.60;2.20;;;21.10;1.00;;;;;;5038666;28;20429;-76
2022/11/09 09:49:58;;;;;;;2.80;1.63;;;20.40;1.00;;;;;;5043685;28;20456;-77
2022/11/09 09:52:38;;;;;;;3.77;2.07;;;20.20;1.00;;;;;;5047907;28;20418;-76
2022/11/09 09:55:10;;;;;;;3.10;1.80;;;20.20;1.00;;;;;;5047532;28;20435;-76
2022/11/09 09:57:36;;;;;;;4.13;1.57;;;20.60;1.00;;;;;;5044583;28;20431;-76
2022/11/09 10:00:06;;;;;;;3.23;2.03;;;20.60;1.00;;;;;;5043672;28;20593;-77
2022/11/09 10:02:36;;;;;;;4.27;2.20;;;21.30;1.00;;;;;;5035252;28;20193;-77
2022/11/09 10:05:07;;;;;;;4.97;2.23;;;21.50;1.00;;;;;;5040400;28;20439;-77
2022/11/09 10:08:03;;;;;;;3.80;1.70;;;21.20;1.00;;;;;;5043253;28;20497;-77
2022/11/09 10:10:36;;;;;;;3.27;2.30;;;20.50;1.00;;;;;;5044131;28;20516;-77
2022/11/09 10:13:18;;;;;;;5.90;2.20;;;19.80;1.00;;;;;;5041583;28;20471;-76
2022/11/09 10:16:13;;;;;;;3.80;2.10;;;19.20;1.00;;;;;;5047032;28;20842;-76
2022/11/09 10:19:06;;;;;;;3.43;1.93;;;18.80;1.00;;;;;;5038317;28;20436;-76
2022/11/09 10:21:59;;;;;;;3.47;2.10;;;18.90;1.00;;;;;;5041641;28;20641;-76
2022/11/09 10:24:30;;;;;;;3.00;2.17;;;18.80;1.00;;;;;;5044810;28;20478;-76
2022/11/09 10:26:58;;;;;;;8.03;2.20;;;19.10;1.00;;;;;;5040538;28;20819;-76
2022/11/09 10:29:23;;;;;;;5.27;1.80;;;19.60;1.00;;;;;;5043092;28;20486;-77
2022/11/09 10:31:56;;;;;;;5.27;2.17;;;19.10;1.00;;;;;;5049861;28;20440;-77
2022/11/09 10:34:40;;;;;;;2.30;1.70;;;19.00;1.00;;;;;;5048842;28;20208;-76
2022/11/09 10:37:14;;;;;;;3.30;2.03;;;18.90;1.00;;;;;;5041516;28;20447;-76
2022/11/09 10:39:50;;;;;;;3.60;2.30;;;19.20;1.00;;;;;;5043798;28;20797;-76
2022/11/09 10:42:15;;;;;;;3.33;2.00;;;20.20;1.00;;;;;;5050166;28;20518;-76
2022/11/09 10:44:41;;;;;;;3.20;1.70;;;20.80;1.00;;;;;;5049329;28;20625;-76
2022/11/09 10:47:12;;;;;;;3.70;1.63;;;20.40;1.00;;;;;;5041890;28;20276;-76
2022/11/09 10:49:38;;;;;;;3.87;2.10;;;20.20;1.00;;;;;;5040440;28;20255;-77
2022/11/09 10:52:25;;;;;;;8.77;1.80;;;21.00;1.00;;;;;;5048884;28;20435;-77
2022/11/09 10:54:50;;;;;;;3.40;1.87;;;22.20;1.00;;;;;;5047250;28;20451;-77
2022/11/09 10:57:20;;;;;;;6.93;2.30;;;23.30;1.00;;;;;;5037519;28;20423;-77
2022/11/09 10:59:50;;;;;;;3.53;1.73;;;23.00;1.00;;;;;;5045264;28;20695;-76
2022/11/09 11:02:25;;;;;;;5.50;2.03;;;21.80;1.00;;;;;;5044299;28;20629;-77
2022/11/09 11:05:05;;;;;;;4.40;1.60;;;20.70;1.00;;;;;;5046936;28;20555;-77
2022/11/09 11:07:32;;;;;;;3.90;2.00;;;20.40;1.00;;;;;;5041477;28;21017;-77
2022/11/09 11:10:15;;;;;;;6.37;2.07;;;20.00;1.00;;;;;;5042443;28;20819;-78
2022/11/09 11:13:12;;;;;;;4.63;2.33;;;20.30;1.00;;;;;;5045559;28;20439;-78
2022/11/09 11:15:40;;;;;;;4.30;2.40;;;20.30;1.00;;;;;;5046630;28;20967;-77
2022/11/09 11:18:22;;;;;;;3.87;2.00;;;20.40;1.00;;;;;;5048921;28;20461;-79
2022/11/09 11:21:04;;;;;;;3.73;1.90;;;21.80;1.00;;;;;;5046922;28;20493;-78
2022/11/09 11:23:35;;;;;;;3.03;1.80;;;23.60;1.00;;;;;;5048032;28;20525;-78
2022/11/09 11:26:22;;;;;;;7.00;2.17;;;24.70;1.00;;;;;;5048784;28;20946;-78
2022/11/09 11:28:52;;;;;;;3.40;2.10;;;25.30;1.00;;;;;;5044795;28;20446;-77
2022/11/09 11:31:19;;;;;;;2.47;1.70;;;25.90;1.00;;;;;;5041474;28;20465;-77
2022/11/09 11:33:45;;;;;;;5.13;2.40;;;25.10;1.00;;;;;;5037111;28;20543;-77
2022/11/09 11:36:11;;;;;;;3.77;1.67;;;24.40;1.00;;;;;;5043455;28;20853;-77
2022/11/09 11:39:09;;;;;;;4.03;1.90;;;24.00;1.00;;;;;;5040192;28;20610;-77
2022/11/09 11:42:10;;;;;;;3.57;1.90;;;23.00;1.00;;;;;;5041708;28;20266;-77
2022/11/09 11:44:57;;;;;;;3.00;2.10;;;21.90;1.00;;;;;;5042542;28;20462;-76
2022/11/09 11:47:35;;;;;;;3.83;2.00;;;21.10;1.00;;;;;;5039180;28;20439;-76
2022/11/09 11:50:22;;;;;;;3.97;2.17;;;20.60;1.00;;;;;;5037346;28;20611;-78
2022/11/09 11:52:58;;;;;;;4.30;2.00;;;20.50;1.00;;;;;;5046494;28;20531;-76
2022/11/09 11:55:41;;;;;;;3.57;2.10;;;20.40;1.00;;;;;;5044246;28;20411;-76
2022/11/09 11:58:10;;;;;;;6.53;2.00;;;20.40;1.00;;;;;;5043295;28;20463;-76
2022/11/09 12:00:48;;;;;;;3.13;1.70;;;20.60;1.00;;;;;;5035158;28;20884;-76
2022/11/09 12:03:19;;;;;;;3.73;2.00;;;20.80;1.00;;;;;;5043135;28;20455;-76
2022/11/09 12:06:13;;;;;;;4.80;2.23;;;20.70;1.00;;;;;;5048825;28;20421;-76
2022/11/09 12:08:50;;;;;;;3.40;1.90;;;20.50;1.00;;;;;;5046681;28;20439;-77
2022/11/09 12:11:41;;;;;;;3.30;1.90;;;19.80;1.00;;;;;;5041123;28;20463;-76
2022/11/09 12:14:31;;;;;;;6.20;2.70;;;19.20;1.00;;;;;;5041425;28;20458;-77
2022/11/09 12:17:36;;;;;;;3.00;2.03;;;18.70;1.00;;;;;;5046483;28;20489;-77
2022/11/09 12:20:21;;;;;;;3.30;2.07;;;18.40;1.00;;;;;;5034022;28;20467;-77
2022/11/09 12:22:55;;;;;;;4.17;2.03;;;18.30;1.00;;;;;;5044135;28;20451;-77
2022/11/09 12:25:29;;;;;;;3.30;2.40;;;18.30;1.00;;;;;;5043790;28;20514;-76
2022/11/09 12:28:04;;;;;;;6.03;2.30;;;18.30;1.00;;;;;;5041937;28;20463;-78
2022/11/09 12:30:48;;;;;;;14.00;2.47;;;18.30;1.00;;;;;;5046160;28;20547;-77
2022/11/09 12:33:57;;;;;;;3.67;1.97;;;18.20;1.00;;;;;;5040494;28;20466;-78
2022/11/09 12:36:30;;;;;;;2.50;2.20;;;18.10;1.00;;;;;;5028732;28;20433;-77
2022/11/09 12:39:04;;;;;;;2.77;2.10;;;17.90;1.00;;;;;;5032336;28;20439;-77
2022/11/09 12:41:34;;;;;;;3.17;2.27;;;17.80;1.00;;;;;;5039518;28;20519;-78
2022/11/09 12:44:49;;;;;;;3.10;2.40;;;17.90;1.00;;;;;;5043263;28;20487;-77
2022/11/09 12:47:20;;;;;;;3.07;2.30;;;17.90;1.00;;;;;;5032730;28;21033;-77
2022/11/09 12:49:46;;;;;;;4.53;2.40;;;17.80;1.00;;;;;;5044364;28;20470;-77
2022/11/09 12:52:19;;;;;;;5.87;2.40;;;17.90;1.00;;;;;;5043266;28;20519;-76
2022/11/09 12:54:48;;;;;;;4.37;2.23;;;18.10;1.00;;;;;;5038171;28;20531;-76
2022/11/09 12:57:27;;;;;;;5.50;2.47;;;18.10;1.00;;;;;;5041806;28;20432;-77
2022/11/09 12:59:55;;;;;;;2.83;2.30;;;18.70;1.00;;;;;;5039915;28;20436;-75